Main page
METAR-TAF:

METAR-TAF

Airports :

Mohamed Boudiaf International Airport

Constantine, Algeria

latitude: 36-17N, longitude: 006-37E, elevation: 694 m

Current weather observation

The report was made 39 minutes ago, at 20:00 UTC
Wind 2 kt from variable directions
Temperature 7°C
Humidity 81%
Pressure 1014 hPa
Visibility 10 km or more
no clouds below 1500 m and no cumulonimbus

METAR: DABC 012000Z VRB02KT CAVOK 07/04 Q1014

Time: 21:39 (20:39 UTC)

Forecast

The report was made 3 hours and 39 minutes ago, at 17:00 UTC
Forecast valid from 01 at 18 UTC to 02 at 18 UTC
Wind 2 kt from variable directions
Visibility 10 km or more
no clouds below 1500 m and no cumulonimbus
Probability 30%
from 02 at 00 UTC to 02 at 12 UTC
Few clouds at a height of 2600 ft, Towering cumulus.

TAF: DABC 011700Z 0118/0218 VRB02KT CAVOK PROB30 0200/0212 FEW026TCU

Weather observations and forecasts of more than 4000 airports (METAR and TAF reports).

The available stations are represented by yellow and red dots on the map.

Hover mouse over dot to see the name of the station.

Then click to see weather observations and forecasts.

To change the map : click on the green buttons with a black cross to zoom in, on the green button with a dash to zoom out, or on the green arrows for adjacent maps.


METAR-TAF: